Time,TemperatureF,DewpointF,PressureIn,WindDirection,WindDirectionDegrees,WindSpeedMPH,WindSpeedGustMPH,Humidity,HourlyPrecipIn,Conditions,Clouds,dailyrainin,SoftwareType,DateUTC
2013-01-02 00:00:00,18.0,14.3,30.01,SSW,207,3.2,7.0,85,0.00,,,0.00,SomeHackedPerlScript,2013-01-02 05:00:00,
2013-01-02 00:01:00,18.2,14.6,30.01,West,259,4.7,5.9,85,0.00,,,0.00,SomeHackedPerlScript,2013-01-02 05:01:00,
2013-01-02 00:06:00,17.9,14.3,30.01,West,265,2.2,8.6,85,0.00,,,0.00,SomeHackedPerlScript,2013-01-02 05:06:00,
2013-01-02 00:11:00,17.8,14.3,30.01,WSW,252,3.1,6.1,85,0.00,,,0.00,SomeHackedPerlScript,2013-01-02 05:11:00,
2013-01-02 00:16:00,17.8,14.4,30.00,WSW,247,5.4,6.9,86,0.00,,,0.00,SomeHackedPerlScript,2013-01-02 05:16:00,
2013-01-02 00:21:00,17.8,14.4,30.01,WSW,251,0.0,6.1,86,0.00,,,0.00,SomeHackedPerlScript,2013-01-02 05:21:00,
2013-01-02 00:26:00,17.8,14.4,30.01,SSW,213,3.5,3.8,86,0.00,,,0.00,SomeHackedPerlScript,2013-01-02 05:26:00,
2013-01-02 00:31:00,17.7,14.3,30.00,WSW,258,5.4,6.0,86,0.00,,,0.00,SomeHackedPerlScript,2013-01-02 05:31:00,
2013-01-02 00:36:00,17.8,14.4,30.00,WSW,240,4.2,6.2,86,0.00,,,0.00,SomeHackedPerlScript,2013-01-02 05:36:00,
2013-01-02 00:41:00,17.7,14.3,30.00,South,191,0.0,6.2,86,0.00,,,0.00,SomeHackedPerlScript,2013-01-02 05:41:00,
2013-01-02 00:45:00,17.5,14.2,30.00,West,273,0.0,4.7,86,0.00,,,0.00,SomeHackedPerlScript,2013-01-02 05:45:00,
2013-01-02 00:50:00,17.4,14.2,30.00,West,264,4.6,4.9,87,0.00,,,0.00,SomeHackedPerlScript,2013-01-02 05:50:00,
2013-01-02 00:55:00,17.4,14.3,30.00,WSW,241,1.1,7.2,87,0.00,,,0.00,SomeHackedPerlScript,2013-01-02 05:55:00,
2013-01-02 01:00:00,17.4,14.3,30.00,SW,234,0.0,4.8,87,0.00,,,0.00,SomeHackedPerlScript,2013-01-02 06:00:00,
2013-01-02 01:05:00,17.3,14.3,30.00,SW,234,0.0,2.0,88,0.00,,,0.00,SomeHackedPerlScript,2013-01-02 06:05:00,
2013-01-02 01:10:00,17.2,14.2,30.00,WSW,255,0.0,4.8,88,0.00,,,0.00,SomeHackedPerlScript,2013-01-02 06:10:00,
2013-01-02 01:15:00,17.2,14.2,30.00,WSW,255,0.0,0.0,88,0.00,,,0.00,SomeHackedPerlScript,2013-01-02 06:15:00,
2013-01-02 01:20:00,17.0,14.0,30.00,WSW,239,1.4,5.4,88,0.00,,,0.00,SomeHackedPerlScript,2013-01-02 06:20:00,
2013-01-02 01:25:00,17.0,14.2,30.00,WSW,255,1.2,5.5,88,0.00,,,0.00,SomeHackedPerlScript,2013-01-02 06:25:00,
2013-01-02 01:30:00,17.1,14.2,30.00,WSW,245,1.6,2.5,88,0.00,,,0.00,SomeHackedPerlScript,2013-01-02 06:30:00,
2013-01-02 01:35:00,17.2,14.3,30.00,WSW,245,0.0,1.6,88,0.00,,,0.00,SomeHackedPerlScript,2013-01-02 06:35:00,
2013-01-02 01:40:00,17.1,14.2,29.99,WSW,241,0.0,1.6,88,0.00,,,0.00,SomeHackedPerlScript,2013-01-02 06:40:00,
2013-01-02 01:45:00,16.8,13.9,29.99,West,276,0.0,4.0,88,0.00,,,0.00,SomeHackedPerlScript,2013-01-02 06:45:00,
2013-01-02 01:50:00,16.7,13.9,30.00,West,275,0.0,5.8,88,0.00,,,0.00,SomeHackedPerlScript,2013-01-02 06:50:00,
2013-01-02 01:55:00,16.6,13.9,30.00,West,275,0.0,0.0,89,0.00,,,0.00,SomeHackedPerlScript,2013-01-02 06:55:00,
2013-01-02 02:00:00,16.6,13.9,29.99,WNW,282,3.1,4.3,89,0.00,,,0.00,SomeHackedPerlScript,2013-01-02 07:00:00,
2013-01-02 02:05:00,16.6,13.9,30.00,West,268,0.0,3.3,89,0.00,,,0.00,SomeHackedPerlScript,2013-01-02 07:05:00,
2013-01-02 02:10:00,16.5,13.8,29.99,West,268,0.0,0.0,88,0.00,,,0.00,SomeHackedPerlScript,2013-01-02 07:10:00,
2013-01-02 02:15:00,16.4,13.7,30.00,West,268,0.0,0.0,89,0.00,,,0.00,SomeHackedPerlScript,2013-01-02 07:15:00,
2013-01-02 02:20:00,16.2,13.6,30.00,West,268,0.0,0.0,89,0.00,,,0.00,SomeHackedPerlScript,2013-01-02 07:20:00,
2013-01-02 02:25:00,16.0,13.5,30.00,West,268,0.0,0.0,89,0.00,,,0.00,SomeHackedPerlScript,2013-01-02 07:25:00,
2013-01-02 02:30:00,15.6,13.2,30.00,West,268,0.0,0.0,90,0.00,,,0.00,SomeHackedPerlScript,2013-01-02 07:30:00,
2013-01-02 02:35:00,15.4,13.1,30.00,West,268,0.0,0.0,90,0.00,,,0.00,SomeHackedPerlScript,2013-01-02 07:35:00,
2013-01-02 02:40:00,15.1,12.9,30.00,West,268,0.0,0.0,90,0.00,,,0.00,SomeHackedPerlScript,2013-01-02 07:40:00,
2013-01-02 02:45:00,14.9,12.8,30.00,West,268,0.0,0.0,91,0.00,,,0.00,SomeHackedPerlScript,2013-01-02 07:45:00,
2013-01-02 02:50:00,14.7,12.7,30.01,West,268,0.0,0.0,91,0.00,,,0.00,SomeHackedPerlScript,2013-01-02 07:50:00,
2013-01-02 02:55:00,14.5,12.6,30.00,West,268,0.0,0.0,92,0.00,,,0.00,SomeHackedPerlScript,2013-01-02 07:55:00,
2013-01-02 03:00:00,14.5,12.7,30.01,West,268,0.0,0.0,92,0.00,,,0.00,SomeHackedPerlScript,2013-01-02 08:00:00,
2013-01-02 03:05:00,14.4,12.7,30.01,West,268,0.0,0.0,93,0.00,,,0.00,SomeHackedPerlScript,2013-01-02 08:05:00,
2013-01-02 03:10:00,14.7,13.1,30.01,West,268,0.0,0.0,93,0.00,,,0.00,SomeHackedPerlScript,2013-01-02 08:10:00,
2013-01-02 03:15:00,14.8,13.1,30.01,West,268,0.0,0.0,93,0.00,,,0.00,SomeHackedPerlScript,2013-01-02 08:15:00,
2013-01-02 03:20:00,14.9,13.2,30.01,West,268,0.0,0.0,93,0.00,,,0.00,SomeHackedPerlScript,2013-01-02 08:20:00,
2013-01-02 03:25:00,14.9,13.2,30.01,West,268,0.0,0.0,93,0.00,,,0.00,SomeHackedPerlScript,2013-01-02 08:25:00,
2013-01-02 03:30:00,14.9,13.2,30.01,West,268,0.0,0.0,93,0.00,,,0.00,SomeHackedPerlScript,2013-01-02 08:30:00,
2013-01-02 03:35:00,14.9,13.3,30.01,SW,223,0.0,1.7,93,0.00,,,0.00,SomeHackedPerlScript,2013-01-02 08:35:00,
2013-01-02 03:40:00,15.1,13.6,30.01,SSW,211,0.0,3.4,93,0.00,,,0.00,SomeHackedPerlScript,2013-01-02 08:40:00,
2013-01-02 03:45:00,15.4,13.8,30.01,WNW,286,0.7,5.2,93,0.00,,,0.00,SomeHackedPerlScript,2013-01-02 08:45:00,
2013-01-02 03:50:00,15.7,14.1,30.01,SW,228,0.0,3.6,93,0.00,,,0.00,SomeHackedPerlScript,2013-01-02 08:50:00,
2013-01-02 03:55:00,15.9,14.2,30.01,SW,228,0.0,0.0,93,0.00,,,0.00,SomeHackedPerlScript,2013-01-02 08:55:00,
2013-01-02 04:00:00,16.3,14.5,30.01,West,261,0.0,2.7,92,0.00,,,0.00,SomeHackedPerlScript,2013-01-02 09:00:00,
2013-01-02 04:05:00,16.6,14.7,30.01,SW,225,0.0,2.5,92,0.00,,,0.00,SomeHackedPerlScript,2013-01-02 09:05:00,
2013-01-02 04:10:00,16.8,14.9,30.01,SW,225,0.0,0.0,92,0.00,,,0.00,SomeHackedPerlScript,2013-01-02 09:10:00,
2013-01-02 04:15:00,16.9,14.9,30.01,SW,225,0.0,0.0,91,0.00,,,0.00,SomeHackedPerlScript,2013-01-02 09:15:00,
2013-01-02 04:20:00,17.0,14.8,30.02,SW,225,0.0,0.0,91,0.00,,,0.00,SomeHackedPerlScript,2013-01-02 09:20:00,
2013-01-02 04:25:00,17.2,15.0,30.02,SSW,213,0.0,5.3,91,0.00,,,0.00,SomeHackedPerlScript,2013-01-02 09:25:00,
2013-01-02 04:30:00,17.4,15.2,30.02,SSW,213,0.0,0.0,91,0.00,,,0.00,SomeHackedPerlScript,2013-01-02 09:30:00,
2013-01-02 04:35:00,17.6,15.4,30.02,WSW,243,2.3,2.3,91,0.00,,,0.00,SomeHackedPerlScript,2013-01-02 09:35:00,
2013-01-02 04:40:00,17.7,15.6,30.01,WSW,245,0.9,5.8,91,0.00,,,0.00,SomeHackedPerlScript,2013-01-02 09:40:00,
2013-01-02 04:45:00,18.0,15.8,30.02,SW,232,0.0,5.6,91,0.00,,,0.00,SomeHackedPerlScript,2013-01-02 09:45:00,
2013-01-02 04:50:00,18.3,16.0,30.01,South,176,1.7,8.6,90,0.00,,,0.00,SomeHackedPerlScript,2013-01-02 09:50:00,
2013-01-02 04:55:00,18.7,16.4,30.02,WSW,250,2.0,6.6,90,0.00,,,0.00,SomeHackedPerlScript,2013-01-02 09:55:00,
2013-01-02 05:00:00,18.8,16.4,30.02,SW,226,5.4,7.6,90,0.00,,,0.00,SomeHackedPerlScript,2013-01-02 10:00:00,
2013-01-02 05:05:00,19.0,16.5,30.01,SW,232,1.5,9.2,90,0.00,,,0.00,SomeHackedPerlScript,2013-01-02 10:05:00,
2013-01-02 05:10:00,19.1,16.6,30.01,SSW,203,0.0,4.8,90,0.00,,,0.00,SomeHackedPerlScript,2013-01-02 10:10:00,
2013-01-02 05:15:00,19.2,16.6,30.01,WSW,237,3.6,7.6,89,0.00,,,0.00,SomeHackedPerlScript,2013-01-02 10:15:00,
2013-01-02 05:20:00,19.4,16.8,30.01,WSW,245,4.0,6.0,89,0.00,,,0.00,SomeHackedPerlScript,2013-01-02 10:20:00,
2013-01-02 05:25:00,19.5,16.9,30.00,West,264,2.0,8.8,89,0.00,,,0.00,SomeHackedPerlScript,2013-01-02 10:25:00,
2013-01-02 05:30:00,19.5,16.8,30.00,WNW,302,5.7,7.9,89,0.00,,,0.00,SomeHackedPerlScript,2013-01-02 10:30:00,
2013-01-02 05:35:00,19.9,17.3,30.00,West,263,6.7,8.1,89,0.00,,,0.00,SomeHackedPerlScript,2013-01-02 10:35:00,
2013-01-02 05:40:00,20.1,17.5,30.00,NW,319,5.6,8.5,89,0.00,,,0.00,SomeHackedPerlScript,2013-01-02 10:40:00,
2013-01-02 05:45:00,20.2,17.7,30.00,WNW,303,6.8,8.8,89,0.00,,,0.00,SomeHackedPerlScript,2013-01-02 10:45:00,
2013-01-02 05:50:00,20.4,17.6,30.01,WNW,289,3.9,11.6,88,0.00,,,0.00,SomeHackedPerlScript,2013-01-02 10:50:00,
2013-01-02 05:55:00,20.7,17.9,30.01,NW,305,4.6,7.1,88,0.00,,,0.00,SomeHackedPerlScript,2013-01-02 10:55:00,
2013-01-02 06:00:00,20.9,18.0,30.01,NW,310,8.3,13.5,88,0.00,,,0.00,SomeHackedPerlScript,2013-01-02 11:00:00,
2013-01-02 06:05:00,20.9,17.9,30.01,WSW,252,6.6,8.7,88,0.00,,,0.00,SomeHackedPerlScript,2013-01-02 11:05:00,
2013-01-02 06:10:00,21.0,17.8,30.01,West,271,3.7,9.7,87,0.00,,,0.00,SomeHackedPerlScript,2013-01-02 11:10:00,
2013-01-02 06:15:00,21.1,18.0,30.01,WSW,256,4.5,13.1,87,0.00,,,0.00,SomeHackedPerlScript,2013-01-02 11:15:00,
2013-01-02 06:20:00,21.2,18.1,30.01,WNW,296,5.1,12.2,87,0.00,,,0.00,SomeHackedPerlScript,2013-01-02 11:20:00,
2013-01-02 06:25:00,21.2,18.0,30.01,WNW,301,9.0,9.0,87,0.00,,,0.00,SomeHackedPerlScript,2013-01-02 11:25:00,
2013-01-02 06:30:00,21.2,18.1,30.02,WNW,302,8.2,11.0,87,0.00,,,0.00,SomeHackedPerlScript,2013-01-02 11:30:00,
2013-01-02 06:35:00,21.3,18.1,30.02,NW,326,4.0,10.9,87,0.00,,,0.00,SomeHackedPerlScript,2013-01-02 11:35:00,
2013-01-02 06:40:00,21.4,18.3,30.02,West,261,2.6,10.5,87,0.00,,,0.00,SomeHackedPerlScript,2013-01-02 11:40:00,
2013-01-02 06:45:00,21.4,18.3,30.02,West,271,4.5,7.8,87,0.00,,,0.00,SomeHackedPerlScript,2013-01-02 11:45:00,
2013-01-02 06:50:00,21.5,18.5,30.03,West,259,4.5,9.2,88,0.00,,,0.00,SomeHackedPerlScript,2013-01-02 11:50:00,
2013-01-02 06:55:00,21.5,18.4,30.03,SW,227,3.8,9.7,87,0.00,,,0.00,SomeHackedPerlScript,2013-01-02 11:55:00,
2013-01-02 07:00:00,21.5,18.5,30.03,West,271,5.4,8.4,88,0.00,,,0.00,SomeHackedPerlScript,2013-01-02 12:00:00,
2013-01-02 07:05:00,21.5,18.5,30.03,SW,234,1.7,9.2,88,0.00,,,0.00,SomeHackedPerlScript,2013-01-02 12:05:00,
2013-01-02 07:10:00,21.7,18.7,30.03,West,263,4.5,9.4,88,0.00,,,0.00,SomeHackedPerlScript,2013-01-02 12:10:00,
2013-01-02 07:15:00,21.7,18.7,30.03,WNW,301,4.5,9.2,88,0.00,,,0.00,SomeHackedPerlScript,2013-01-02 12:15:00,
2013-01-02 07:20:00,21.7,18.7,30.03,SW,221,0.0,8.9,88,0.00,,,0.00,SomeHackedPerlScript,2013-01-02 12:20:00,
2013-01-02 07:25:00,21.7,18.7,30.03,WNW,295,4.3,10.5,88,0.00,,,0.00,SomeHackedPerlScript,2013-01-02 12:25:00,
2013-01-02 07:30:00,21.7,18.7,30.03,WSW,254,3.0,9.2,88,0.00,,,0.00,SomeHackedPerlScript,2013-01-02 12:30:00,
2013-01-02 07:35:00,21.8,18.7,30.04,WNW,294,3.7,8.1,87,0.00,,,0.00,SomeHackedPerlScript,2013-01-02 12:35:00,
2013-01-02 07:40:00,21.8,18.7,30.04,WNW,284,3.8,7.6,87,0.00,,,0.00,SomeHackedPerlScript,2013-01-02 12:40:00,
2013-01-02 07:45:00,21.8,18.6,30.04,WNW,299,2.5,11.5,87,0.00,,,0.00,SomeHackedPerlScript,2013-01-02 12:45:00,
2013-01-02 07:50:00,21.9,18.7,30.04,WNW,299,2.9,8.2,87,0.00,,,0.00,SomeHackedPerlScript,2013-01-02 12:50:00,
2013-01-02 07:55:00,22.0,18.9,30.04,WNW,287,2.0,7.6,87,0.00,,,0.00,SomeHackedPerlScript,2013-01-02 12:55:00,
2013-01-02 08:00:00,21.9,18.5,30.04,WSW,250,7.9,10.7,86,0.00,,,0.00,SomeHackedPerlScript,2013-01-02 13:00:00,
2013-01-02 08:05:00,22.1,18.8,30.04,West,281,4.2,12.0,87,0.00,,,0.00,SomeHackedPerlScript,2013-01-02 13:05:00,
2013-01-02 08:10:00,22.1,18.8,30.04,West,268,3.6,8.1,87,0.00,,,0.00,SomeHackedPerlScript,2013-01-02 13:10:00,
2013-01-02 08:15:00,22.2,19.0,30.05,SW,233,5.0,6.3,87,0.00,,,0.00,SomeHackedPerlScript,2013-01-02 13:15:00,
2013-01-02 08:20:00,22.2,19.0,30.05,NW,312,2.5,6.9,87,0.00,,,0.00,SomeHackedPerlScript,2013-01-02 13:20:00,
2013-01-02 08:25:00,22.2,19.0,30.05,WNW,300,3.3,6.6,87,0.00,,,0.00,SomeHackedPerlScript,2013-01-02 13:25:00,
2013-01-02 08:30:00,22.2,19.0,30.05,NNW,330,1.8,8.4,87,0.00,,,0.00,SomeHackedPerlScript,2013-01-02 13:30:00,
2013-01-02 08:35:00,22.3,19.2,30.05,West,279,1.3,6.7,87,0.00,,,0.00,SomeHackedPerlScript,2013-01-02 13:35:00,
2013-01-02 08:40:00,22.4,19.3,30.05,West,272,3.0,8.4,87,0.00,,,0.00,SomeHackedPerlScript,2013-01-02 13:40:00,
2013-01-02 08:45:00,22.3,19.1,30.06,West,262,7.2,11.3,87,0.00,,,0.00,SomeHackedPerlScript,2013-01-02 13:45:00,
2013-01-02 08:50:00,22.4,19.2,30.06,NW,309,5.2,10.2,87,0.00,,,0.00,SomeHackedPerlScript,2013-01-02 13:50:00,
2013-01-02 08:55:00,22.4,19.2,30.05,West,279,6.3,9.9,87,0.00,,,0.00,SomeHackedPerlScript,2013-01-02 13:55:00,
2013-01-02 09:00:00,22.4,19.2,30.06,West,275,5.3,8.6,87,0.00,,,0.00,SomeHackedPerlScript,2013-01-02 14:00:00,
2013-01-02 09:05:00,22.4,19.2,30.06,NNW,331,3.8,8.6,87,0.00,,,0.00,SomeHackedPerlScript,2013-01-02 14:05:00,
2013-01-02 09:10:00,22.6,19.5,30.06,WNW,290,0.0,6.3,88,0.00,,,0.00,SomeHackedPerlScript,2013-01-02 14:10:00,
2013-01-02 09:15:00,22.5,19.4,30.06,West,268,2.6,8.2,87,0.00,,,0.00,SomeHackedPerlScript,2013-01-02 14:15:00,
2013-01-02 09:20:00,22.6,19.6,30.06,West,280,1.4,4.7,88,0.00,,,0.00,SomeHackedPerlScript,2013-01-02 14:20:00,
2013-01-02 09:25:00,22.7,19.8,30.06,West,272,3.8,6.5,88,0.00,,,0.00,SomeHackedPerlScript,2013-01-02 14:25:00,
2013-01-02 09:30:00,22.7,20.0,30.06,WSW,252,2.8,5.6,89,0.00,,,0.00,SomeHackedPerlScript,2013-01-02 14:30:00,
2013-01-02 09:35:00,22.8,19.9,30.06,NW,313,3.9,4.5,88,0.00,,,0.00,SomeHackedPerlScript,2013-01-02 14:35:00,
2013-01-02 09:40:00,22.7,19.8,30.06,WNW,303,4.4,7.6,88,0.00,,,0.00,SomeHackedPerlScript,2013-01-02 14:40:00,
2013-01-02 09:45:00,22.8,20.1,30.06,NW,306,3.4,5.3,89,0.00,,,0.00,SomeHackedPerlScript,2013-01-02 14:45:00,
2013-01-02 09:50:00,22.7,20.0,30.07,WSW,245,0.0,9.3,89,0.00,,,0.00,SomeHackedPerlScript,2013-01-02 14:50:00,
2013-01-02 09:55:00,22.8,20.1,30.07,NW,318,5.1,5.5,89,0.00,,,0.00,SomeHackedPerlScript,2013-01-02 14:55:00,
2013-01-02 10:00:00,22.9,20.4,30.07,West,272,1.1,5.7,90,0.00,,,0.00,SomeHackedPerlScript,2013-01-02 15:00:00,
2013-01-02 10:05:00,22.9,20.4,30.08,West,273,2.3,5.5,90,0.00,,,0.00,SomeHackedPerlScript,2013-01-02 15:05:00,
2013-01-02 10:10:00,22.8,20.3,30.08,WNW,292,0.9,5.1,90,0.00,,,0.00,SomeHackedPerlScript,2013-01-02 15:10:00,
2013-01-02 10:15:00,23.0,20.7,30.08,SW,220,0.0,4.6,90,0.00,,,0.00,SomeHackedPerlScript,2013-01-02 15:15:00,
2013-01-02 10:20:00,23.0,20.6,30.09,West,265,0.0,6.3,90,0.00,,,0.00,SomeHackedPerlScript,2013-01-02 15:20:00,
2013-01-02 10:25:00,23.1,20.8,30.09,WNW,287,2.3,4.2,91,0.00,,,0.00,SomeHackedPerlScript,2013-01-02 15:25:00,
2013-01-02 10:30:00,23.2,20.9,30.09,West,263,2.7,5.4,90,0.00,,,0.00,SomeHackedPerlScript,2013-01-02 15:30:00,
2013-01-02 10:35:00,23.3,21.1,30.09,WSW,243,2.5,5.2,91,0.00,,,0.00,SomeHackedPerlScript,2013-01-02 15:35:00,
2013-01-02 10:40:00,23.2,21.0,30.09,WNW,299,5.2,6.3,91,0.00,,,0.00,SomeHackedPerlScript,2013-01-02 15:40:00,
2013-01-02 10:45:00,23.2,21.0,30.09,WSW,241,1.7,6.0,91,0.00,,,0.00,SomeHackedPerlScript,2013-01-02 15:45:00,
2013-01-02 10:50:00,23.2,21.1,30.09,West,273,0.0,3.7,91,0.00,,,0.00,SomeHackedPerlScript,2013-01-02 15:50:00,
2013-01-02 10:55:00,23.4,21.3,30.09,West,273,0.0,0.0,91,0.00,,,0.00,SomeHackedPerlScript,2013-01-02 15:55:00,
2013-01-02 11:00:00,23.5,21.3,30.10,NNW,345,1.9,4.6,91,0.00,,,0.00,SomeHackedPerlScript,2013-01-02 16:00:00,
2013-01-02 11:05:00,23.6,21.5,30.10,WNW,296,0.0,2.8,91,0.00,,,0.00,SomeHackedPerlScript,2013-01-02 16:05:00,
2013-01-02 11:10:00,23.7,21.5,30.10,NW,309,0.0,3.8,91,0.00,,,0.00,SomeHackedPerlScript,2013-01-02 16:10:00,
2013-01-02 11:15:00,23.8,21.7,30.10,NNW,334,2.7,4.2,91,0.00,,,0.00,SomeHackedPerlScript,2013-01-02 16:15:00,
2013-01-02 11:20:00,23.7,21.4,30.09,NW,307,3.0,5.0,90,0.00,,,0.00,SomeHackedPerlScript,2013-01-02 16:20:00,
2013-01-02 11:25:00,23.7,21.5,30.09,NNW,335,0.0,5.6,91,0.00,,,0.00,SomeHackedPerlScript,2013-01-02 16:25:00,
2013-01-02 11:30:00,23.6,21.3,30.10,NW,309,0.0,3.8,91,0.00,,,0.00,SomeHackedPerlScript,2013-01-02 16:30:00,
2013-01-02 11:35:00,23.6,21.5,30.09,NW,309,0.0,0.0,91,0.00,,,0.00,SomeHackedPerlScript,2013-01-02 16:35:00,
2013-01-02 11:40:00,23.8,21.6,30.09,NNW,328,0.0,3.3,91,0.00,,,0.00,SomeHackedPerlScript,2013-01-02 16:40:00,
2013-01-02 11:45:00,23.9,21.8,30.10,NNW,328,0.0,0.0,91,0.00,,,0.00,SomeHackedPerlScript,2013-01-02 16:45:00,
2013-01-02 11:50:00,24.0,21.8,30.10,NNW,328,0.0,0.0,91,0.00,,,0.00,SomeHackedPerlScript,2013-01-02 16:50:00,
2013-01-02 11:55:00,24.1,22.0,30.10,NNW,328,0.0,0.0,91,0.00,,,0.00,SomeHackedPerlScript,2013-01-02 16:55:00,
2013-01-02 12:00:00,24.1,21.9,30.10,WSW,242,0.0,3.0,91,0.00,,,0.00,SomeHackedPerlScript,2013-01-02 17:00:00,
2013-01-02 12:05:00,24.2,22.1,30.10,WSW,242,0.0,0.0,91,0.00,,,0.00,SomeHackedPerlScript,2013-01-02 17:05:00,
2013-01-02 12:10:00,24.3,22.0,30.10,WSW,237,0.0,2.3,91,0.00,,,0.00,SomeHackedPerlScript,2013-01-02 17:10:00,
2013-01-02 12:15:00,24.3,22.0,30.09,WSW,237,0.0,0.0,91,0.00,,,0.00,SomeHackedPerlScript,2013-01-02 17:15:00,
2013-01-02 12:20:00,24.2,21.9,30.09,NNE,31,0.0,1.6,90,0.00,,,0.00,SomeHackedPerlScript,2013-01-02 17:20:00,
2013-01-02 12:25:00,24.2,21.9,30.09,NNE,31,0.0,0.0,91,0.00,,,0.00,SomeHackedPerlScript,2013-01-02 17:25:00,
2013-01-02 12:30:00,24.2,21.9,30.09,NNE,31,0.0,0.0,90,0.00,,,0.00,SomeHackedPerlScript,2013-01-02 17:30:00,
2013-01-02 12:35:00,24.2,21.8,30.09,NNE,31,0.0,0.0,90,0.00,,,0.00,SomeHackedPerlScript,2013-01-02 17:35:00,
2013-01-02 12:40:00,24.4,22.1,30.09,NNE,31,0.0,0.0,90,0.00,,,0.00,SomeHackedPerlScript,2013-01-02 17:40:00,
2013-01-02 12:45:00,24.5,22.1,30.09,WSW,241,2.0,2.5,90,0.00,,,0.00,SomeHackedPerlScript,2013-01-02 17:45:00,
2013-01-02 12:50:00,24.6,22.0,30.09,SSW,210,0.0,2.0,90,0.00,,,0.00,SomeHackedPerlScript,2013-01-02 17:50:00,
2013-01-02 12:55:00,24.6,22.1,30.09,SSW,210,0.0,0.0,90,0.00,,,0.00,SomeHackedPerlScript,2013-01-02 17:55:00,
2013-01-02 13:00:00,24.6,22.0,30.09,SSW,210,0.0,0.0,89,0.00,,,0.00,SomeHackedPerlScript,2013-01-02 18:00:00,
2013-01-02 13:05:00,24.8,22.2,30.09,SSW,210,0.0,0.0,89,0.00,,,0.00,SomeHackedPerlScript,2013-01-02 18:05:00,
2013-01-02 13:10:00,24.8,22.2,30.09,SSW,210,0.0,0.0,90,0.00,,,0.00,SomeHackedPerlScript,2013-01-02 18:10:00,
2013-01-02 13:15:00,24.9,22.3,30.09,SSW,210,0.0,0.0,89,0.00,,,0.00,SomeHackedPerlScript,2013-01-02 18:15:00,
2013-01-02 13:20:00,25.0,22.3,30.09,SSW,210,0.0,0.0,89,0.00,,,0.00,SomeHackedPerlScript,2013-01-02 18:20:00,
2013-01-02 13:25:00,24.9,22.0,30.09,SSW,210,0.0,0.0,88,0.00,,,0.00,SomeHackedPerlScript,2013-01-02 18:25:00,
2013-01-02 13:30:00,24.8,21.8,30.08,SSW,210,0.0,0.0,88,0.00,,,0.00,SomeHackedPerlScript,2013-01-02 18:30:00,
2013-01-02 13:35:00,25.0,22.0,30.09,SSW,210,0.0,0.0,88,0.00,,,0.00,SomeHackedPerlScript,2013-01-02 18:35:00,
2013-01-02 13:40:00,24.9,21.9,30.08,SSW,210,0.0,0.0,88,0.00,,,0.00,SomeHackedPerlScript,2013-01-02 18:40:00,
2013-01-02 13:45:00,25.0,22.0,30.08,SSW,210,0.0,0.0,88,0.00,,,0.00,SomeHackedPerlScript,2013-01-02 18:45:00,
2013-01-02 13:50:00,25.1,22.1,30.08,SSW,210,0.0,0.0,88,0.00,,,0.00,SomeHackedPerlScript,2013-01-02 18:50:00,
2013-01-02 13:55:00,25.0,22.0,30.08,SSW,210,0.0,0.0,88,0.00,,,0.00,SomeHackedPerlScript,2013-01-02 18:55:00,
2013-01-02 14:00:00,25.2,22.5,30.08,SSW,210,0.0,0.0,89,0.00,,,0.00,SomeHackedPerlScript,2013-01-02 19:00:00,
2013-01-02 14:05:00,25.5,22.5,30.08,SSW,210,0.0,0.0,88,0.00,,,0.00,SomeHackedPerlScript,2013-01-02 19:05:00,
2013-01-02 14:10:00,25.6,22.3,30.08,SSW,193,0.5,1.1,87,0.00,,,0.00,SomeHackedPerlScript,2013-01-02 19:10:00,
2013-01-02 14:15:00,25.4,22.0,30.08,SSE,156,0.0,2.9,86,0.00,,,0.00,SomeHackedPerlScript,2013-01-02 19:15:00,
2013-01-02 14:20:00,25.4,22.3,30.08,SSE,156,0.0,0.0,87,0.00,,,0.00,SomeHackedPerlScript,2013-01-02 19:20:00,
2013-01-02 14:25:00,25.4,22.2,30.07,SE,138,0.0,0.9,87,0.00,,,0.00,SomeHackedPerlScript,2013-01-02 19:25:00,
2013-01-02 14:30:00,25.3,22.1,30.07,SE,138,0.0,0.0,87,0.00,,,0.00,SomeHackedPerlScript,2013-01-02 19:30:00,
2013-01-02 14:35:00,25.4,22.3,30.07,SE,138,0.0,0.0,87,0.00,,,0.00,SomeHackedPerlScript,2013-01-02 19:35:00,
2013-01-02 14:40:00,25.5,22.2,30.07,SE,138,0.0,0.0,87,0.00,,,0.00,SomeHackedPerlScript,2013-01-02 19:40:00,
2013-01-02 14:45:00,25.5,22.3,30.07,SE,138,0.0,0.0,87,0.00,,,0.00,SomeHackedPerlScript,2013-01-02 19:45:00,
2013-01-02 14:50:00,25.5,22.3,30.07,SE,138,0.0,0.0,87,0.00,,,0.00,SomeHackedPerlScript,2013-01-02 19:50:00,
2013-01-02 14:55:00,25.5,22.5,30.07,SE,138,0.0,0.0,88,0.00,,,0.00,SomeHackedPerlScript,2013-01-02 19:55:00,
2013-01-02 15:00:00,25.6,22.5,30.07,SE,138,0.0,0.0,88,0.00,,,0.00,SomeHackedPerlScript,2013-01-02 20:00:00,
2013-01-02 15:05:00,25.6,22.4,30.07,SE,138,0.0,0.0,87,0.00,,,0.00,SomeHackedPerlScript,2013-01-02 20:05:00,
2013-01-02 15:10:00,25.5,22.4,30.08,SE,138,0.0,0.0,88,0.00,,,0.00,SomeHackedPerlScript,2013-01-02 20:10:00,
2013-01-02 15:15:00,25.5,22.5,30.07,SE,138,0.0,0.0,88,0.00,,,0.00,SomeHackedPerlScript,2013-01-02 20:15:00,
2013-01-02 15:20:00,25.5,22.7,30.07,SE,138,0.0,0.0,89,0.00,,,0.00,SomeHackedPerlScript,2013-01-02 20:20:00,
2013-01-02 15:25:00,25.5,22.8,30.07,SE,138,0.0,0.0,89,0.00,,,0.00,SomeHackedPerlScript,2013-01-02 20:25:00,
2013-01-02 15:30:00,25.5,22.7,30.07,SE,138,0.0,0.0,89,0.00,,,0.00,SomeHackedPerlScript,2013-01-02 20:30:00,
2013-01-02 15:35:00,25.4,22.7,30.07,SE,138,0.0,0.0,89,0.00,,,0.00,SomeHackedPerlScript,2013-01-02 20:35:00,
2013-01-02 15:40:00,25.3,22.5,30.07,SE,138,0.0,0.0,89,0.00,,,0.00,SomeHackedPerlScript,2013-01-02 20:40:00,
2013-01-02 15:45:00,25.1,22.5,30.07,SE,135,0.0,1.5,89,0.00,,,0.00,SomeHackedPerlScript,2013-01-02 20:45:00,
2013-01-02 15:50:00,25.1,22.6,30.07,SE,135,0.0,0.0,90,0.00,,,0.00,SomeHackedPerlScript,2013-01-02 20:50:00,
2013-01-02 15:55:00,25.2,22.7,30.08,SE,135,0.0,0.0,90,0.00,,,0.00,SomeHackedPerlScript,2013-01-02 20:55:00,
2013-01-02 16:00:00,25.1,22.7,30.08,SE,135,0.0,0.0,90,0.00,,,0.00,SomeHackedPerlScript,2013-01-02 21:00:00,
2013-01-02 16:05:00,25.0,22.6,30.08,SE,135,0.0,0.0,90,0.00,,,0.00,SomeHackedPerlScript,2013-01-02 21:05:00,
2013-01-02 16:10:00,25.0,22.7,30.08,SE,131,0.0,3.4,91,0.00,,,0.00,SomeHackedPerlScript,2013-01-02 21:10:00,
2013-01-02 16:15:00,24.9,22.6,30.08,SE,131,0.0,5.0,91,0.00,,,0.00,SomeHackedPerlScript,2013-01-02 21:15:00,
2013-01-02 16:20:00,24.9,22.6,30.08,SE,131,0.0,0.0,91,0.00,,,0.00,SomeHackedPerlScript,2013-01-02 21:20:00,
2013-01-02 16:25:00,24.9,22.6,30.08,SE,131,0.0,0.0,91,0.00,,,0.00,SomeHackedPerlScript,2013-01-02 21:25:00,
2013-01-02 16:30:00,24.9,22.7,30.08,SE,131,0.0,0.0,91,0.00,,,0.00,SomeHackedPerlScript,2013-01-02 21:30:00,
2013-01-02 16:35:00,24.9,22.7,30.08,SE,131,0.0,0.0,91,0.00,,,0.00,SomeHackedPerlScript,2013-01-02 21:35:00,
2013-01-02 16:40:00,24.9,22.6,30.09,SE,131,0.0,0.0,91,0.00,,,0.00,SomeHackedPerlScript,2013-01-02 21:40:00,
2013-01-02 16:45:00,24.8,22.6,30.09,South,186,0.0,1.8,91,0.00,,,0.00,SomeHackedPerlScript,2013-01-02 21:45:00,
2013-01-02 16:50:00,24.8,22.6,30.09,South,186,0.0,0.0,91,0.00,,,0.00,SomeHackedPerlScript,2013-01-02 21:50:00,
2013-01-02 16:55:00,24.8,22.6,30.09,East,94,0.0,1.6,91,0.00,,,0.00,SomeHackedPerlScript,2013-01-02 21:55:00,
2013-01-02 17:00:00,24.7,22.6,30.09,South,179,0.0,3.8,91,0.00,,,0.00,SomeHackedPerlScript,2013-01-02 22:00:00,
2013-01-02 17:05:00,24.7,22.6,30.09,South,179,0.0,0.0,91,0.00,,,0.00,SomeHackedPerlScript,2013-01-02 22:05:00,
2013-01-02 17:10:00,24.7,22.7,30.09,SE,127,0.0,2.7,92,0.00,,,0.00,SomeHackedPerlScript,2013-01-02 22:10:00,
2013-01-02 17:15:00,24.7,22.7,30.09,East,87,0.0,1.3,92,0.00,,,0.00,SomeHackedPerlScript,2013-01-02 22:15:00,
2013-01-02 17:20:00,24.7,22.8,30.09,East,87,0.0,0.0,92,0.00,,,0.00,SomeHackedPerlScript,2013-01-02 22:20:00,
2013-01-02 17:25:00,24.7,22.8,30.09,SE,136,0.0,3.3,92,0.00,,,0.00,SomeHackedPerlScript,2013-01-02 22:25:00,
2013-01-02 17:30:00,24.7,22.9,30.09,SE,136,0.0,0.0,92,0.00,,,0.00,SomeHackedPerlScript,2013-01-02 22:30:00,
2013-01-02 17:35:00,24.6,22.8,30.09,SE,136,1.3,2.7,93,0.00,,,0.00,SomeHackedPerlScript,2013-01-02 22:35:00,
2013-01-02 17:40:00,24.7,22.9,30.09,ESE,115,0.0,1.6,93,0.00,,,0.00,SomeHackedPerlScript,2013-01-02 22:40:00,
2013-01-02 17:45:00,24.7,22.9,30.09,ESE,103,0.0,3.4,92,0.00,,,0.00,SomeHackedPerlScript,2013-01-02 22:45:00,
2013-01-02 17:50:00,24.7,22.9,30.09,ESE,103,0.0,0.0,92,0.00,,,0.00,SomeHackedPerlScript,2013-01-02 22:50:00,
2013-01-02 17:55:00,24.7,23.0,30.09,SSE,153,2.8,3.2,93,0.00,,,0.00,SomeHackedPerlScript,2013-01-02 22:55:00,
2013-01-02 18:00:00,24.7,23.0,30.09,SSE,159,0.0,3.2,93,0.00,,,0.00,SomeHackedPerlScript,2013-01-02 23:00:00,
2013-01-02 18:05:00,24.8,23.1,30.09,SSE,159,0.0,0.0,93,0.00,,,0.00,SomeHackedPerlScript,2013-01-02 23:05:00,
2013-01-02 18:10:00,24.8,23.0,30.09,SSE,159,0.0,0.0,93,0.00,,,0.00,SomeHackedPerlScript,2013-01-02 23:10:00,
2013-01-02 18:15:00,24.8,23.1,30.09,SSE,159,0.0,0.0,93,0.00,,,0.00,SomeHackedPerlScript,2013-01-02 23:15:00,
2013-01-02 18:20:00,24.9,23.2,30.09,SSE,159,0.0,0.0,93,0.00,,,0.00,SomeHackedPerlScript,2013-01-02 23:20:00,
2013-01-02 18:25:00,24.9,23.2,30.09,SSE,160,0.0,5.4,93,0.00,,,0.00,SomeHackedPerlScript,2013-01-02 23:25:00,
2013-01-02 18:30:00,25.0,23.3,30.09,SSE,160,0.0,0.0,93,0.00,,,0.00,SomeHackedPerlScript,2013-01-02 23:30:00,
2013-01-02 18:35:00,25.0,23.3,30.09,South,172,0.0,1.4,93,0.00,,,0.00,SomeHackedPerlScript,2013-01-02 23:35:00,
2013-01-02 18:40:00,25.0,23.3,30.09,South,172,0.0,0.0,93,0.00,,,0.00,SomeHackedPerlScript,2013-01-02 23:40:00,
2013-01-02 18:45:00,25.0,23.3,30.10,South,172,0.0,0.0,93,0.00,,,0.00,SomeHackedPerlScript,2013-01-02 23:45:00,
2013-01-02 18:50:00,25.1,23.5,30.10,South,169,0.0,3.4,93,0.00,,,0.00,SomeHackedPerlScript,2013-01-02 23:50:00,
2013-01-02 18:55:00,25.1,23.5,30.10,South,169,0.0,0.0,93,0.00,,,0.00,SomeHackedPerlScript,2013-01-02 23:55:00,
2013-01-02 19:00:00,25.2,23.6,30.10,South,169,0.0,0.0,93,0.00,,,0.00,SomeHackedPerlScript,2013-01-03 00:00:00,
2013-01-02 19:05:00,25.3,23.6,30.10,South,169,0.0,0.0,93,0.00,,,0.00,SomeHackedPerlScript,2013-01-03 00:05:00,
2013-01-02 19:10:00,25.4,23.8,30.10,South,169,0.0,0.0,93,0.00,,,0.00,SomeHackedPerlScript,2013-01-03 00:10:00,
2013-01-02 19:15:00,25.4,23.8,30.10,South,169,0.0,0.0,93,0.00,,,0.00,SomeHackedPerlScript,2013-01-03 00:15:00,
2013-01-02 19:20:00,25.5,23.9,30.10,South,169,0.0,0.0,93,0.00,,,0.00,SomeHackedPerlScript,2013-01-03 00:20:00,
2013-01-02 19:25:00,25.6,24.0,30.10,South,169,0.0,0.0,93,0.00,,,0.00,SomeHackedPerlScript,2013-01-03 00:25:00,
2013-01-02 19:30:00,25.7,24.0,30.10,SW,217,0.0,3.5,93,0.00,,,0.00,SomeHackedPerlScript,2013-01-03 00:30:00,
2013-01-02 19:35:00,25.7,24.0,30.10,SW,217,0.0,0.0,93,0.00,,,0.00,SomeHackedPerlScript,2013-01-03 00:35:00,
2013-01-02 19:40:00,25.8,24.0,30.10,SW,217,0.0,0.0,93,0.00,,,0.00,SomeHackedPerlScript,2013-01-03 00:40:00,
2013-01-02 19:45:00,25.8,24.0,30.09,SW,217,0.0,0.0,92,0.00,,,0.00,SomeHackedPerlScript,2013-01-03 00:45:00,
2013-01-02 19:50:00,25.9,24.1,30.09,SW,217,0.0,0.0,92,0.00,,,0.00,SomeHackedPerlScript,2013-01-03 00:50:00,
2013-01-02 19:55:00,25.9,24.0,30.09,SW,217,0.0,0.0,92,0.00,,,0.00,SomeHackedPerlScript,2013-01-03 00:55:00,
2013-01-02 20:00:00,26.0,24.1,30.09,SW,217,0.0,0.0,92,0.00,,,0.00,SomeHackedPerlScript,2013-01-03 01:00:00,
2013-01-02 20:05:00,26.0,24.1,30.09,SE,125,0.0,3.2,92,0.00,,,0.00,SomeHackedPerlScript,2013-01-03 01:05:00,
2013-01-02 20:10:00,26.0,24.1,30.09,SE,125,0.0,0.0,92,0.00,,,0.00,SomeHackedPerlScript,2013-01-03 01:10:00,
2013-01-02 20:15:00,26.2,24.3,30.09,SE,125,0.0,0.0,92,0.00,,,0.00,SomeHackedPerlScript,2013-01-03 01:15:00,
2013-01-02 20:20:00,26.2,24.4,30.09,SE,125,0.0,0.0,92,0.00,,,0.00,SomeHackedPerlScript,2013-01-03 01:20:00,
2013-01-02 20:25:00,26.1,24.3,30.08,SE,125,0.0,0.0,92,0.00,,,0.00,SomeHackedPerlScript,2013-01-03 01:25:00,
2013-01-02 20:30:00,26.1,24.3,30.08,SE,125,0.0,0.0,92,0.00,,,0.00,SomeHackedPerlScript,2013-01-03 01:30:00,
2013-01-02 20:35:00,26.0,24.3,30.08,SSE,166,1.4,5.8,93,0.00,,,0.00,SomeHackedPerlScript,2013-01-03 01:35:00,
2013-01-02 20:40:00,26.1,24.4,30.07,SSE,159,3.2,4.1,93,0.00,,,0.00,SomeHackedPerlScript,2013-01-03 01:40:00,
2013-01-02 20:45:00,26.0,24.5,30.08,SE,142,0.0,5.1,94,0.00,,,0.00,SomeHackedPerlScript,2013-01-03 01:45:00,
2013-01-02 20:50:00,26.0,24.5,30.07,SE,142,0.0,0.0,94,0.00,,,0.00,SomeHackedPerlScript,2013-01-03 01:50:00,
2013-01-02 20:55:00,26.1,24.7,30.07,SE,146,0.0,3.8,94,0.00,,,0.00,SomeHackedPerlScript,2013-01-03 01:55:00,
2013-01-02 21:00:00,26.0,24.6,30.07,SSE,151,0.0,4.2,94,0.00,,,0.00,SomeHackedPerlScript,2013-01-03 02:00:00,
2013-01-02 21:05:00,26.0,24.7,30.07,SSE,151,0.0,0.0,95,0.00,,,0.00,SomeHackedPerlScript,2013-01-03 02:05:00,
2013-01-02 21:10:00,26.0,24.8,30.07,SSE,151,0.0,0.0,95,0.00,,,0.00,SomeHackedPerlScript,2013-01-03 02:10:00,
2013-01-02 21:15:00,26.0,24.8,30.07,SSE,151,0.0,0.0,95,0.00,,,0.00,SomeHackedPerlScript,2013-01-03 02:15:00,
2013-01-02 21:20:00,26.0,24.9,30.07,SSE,151,0.0,0.0,95,0.00,,,0.00,SomeHackedPerlScript,2013-01-03 02:20:00,
2013-01-02 21:25:00,25.9,24.9,30.06,SSE,165,3.7,6.6,95,0.00,,,0.00,SomeHackedPerlScript,2013-01-03 02:25:00,
2013-01-02 21:30:00,26.0,25.0,30.07,SSE,165,0.0,4.3,95,0.00,,,0.00,SomeHackedPerlScript,2013-01-03 02:30:00,
2013-01-02 21:35:00,26.0,25.0,30.07,SSE,154,0.8,3.1,96,0.00,,,0.00,SomeHackedPerlScript,2013-01-03 02:35:00,
2013-01-02 21:40:00,26.0,25.1,30.07,South,169,4.5,4.6,96,0.00,,,0.00,SomeHackedPerlScript,2013-01-03 02:40:00,
2013-01-02 21:45:00,26.0,25.1,30.07,SSW,206,2.0,4.8,96,0.00,,,0.00,SomeHackedPerlScript,2013-01-03 02:45:00,
2013-01-02 21:50:00,26.1,25.2,30.06,SSW,207,0.7,5.5,96,0.00,,,0.00,SomeHackedPerlScript,2013-01-03 02:50:00,
2013-01-02 21:55:00,26.0,25.0,30.06,SSW,194,1.0,6.5,96,0.00,,,0.00,SomeHackedPerlScript,2013-01-03 02:55:00,
2013-01-02 22:00:00,26.1,25.1,30.06,South,176,4.1,7.5,96,0.00,,,0.00,SomeHackedPerlScript,2013-01-03 03:00:00,
2013-01-02 22:05:00,26.1,25.0,30.06,South,172,2.5,6.6,95,0.00,,,0.00,SomeHackedPerlScript,2013-01-03 03:05:00,
2013-01-02 22:10:00,26.2,25.1,30.06,SSW,201,3.6,6.9,95,0.00,,,0.00,SomeHackedPerlScript,2013-01-03 03:10:00,
2013-01-02 22:15:00,26.3,25.2,30.06,South,183,1.0,7.6,95,0.00,,,0.00,SomeHackedPerlScript,2013-01-03 03:15:00,
2013-01-02 22:20:00,26.2,25.0,30.06,South,189,0.9,5.6,95,0.00,,,0.00,SomeHackedPerlScript,2013-01-03 03:20:00,
2013-01-02 22:25:00,26.3,25.1,30.06,WSW,239,3.7,7.2,95,0.00,,,0.00,SomeHackedPerlScript,2013-01-03 03:25:00,
2013-01-02 22:30:00,26.3,25.0,30.06,SSW,207,2.3,8.7,95,0.00,,,0.00,SomeHackedPerlScript,2013-01-03 03:30:00,
2013-01-02 22:36:00,26.2,24.9,30.05,SSW,192,2.2,8.8,94,0.00,,,0.00,SomeHackedPerlScript,2013-01-03 03:36:00,
2013-01-02 22:41:00,26.2,24.8,30.05,SSE,161,7.6,8.2,94,0.00,,,0.00,SomeHackedPerlScript,2013-01-03 03:41:00,
2013-01-02 22:46:00,26.3,24.9,30.05,SW,218,2.0,9.7,94,0.00,,,0.00,SomeHackedPerlScript,2013-01-03 03:46:00,
2013-01-02 22:51:00,26.3,24.8,30.05,South,183,4.9,5.2,94,0.00,,,0.00,SomeHackedPerlScript,2013-01-03 03:51:00,
2013-01-02 22:56:00,26.3,24.8,30.05,SW,216,3.9,7.0,94,0.00,,,0.00,SomeHackedPerlScript,2013-01-03 03:56:00,
2013-01-02 23:01:00,26.4,24.7,30.05,West,271,4.6,6.1,93,0.00,,,0.00,SomeHackedPerlScript,2013-01-03 04:01:00,
2013-01-02 23:06:00,26.3,24.5,30.05,South,191,0.0,6.0,93,0.00,,,0.00,SomeHackedPerlScript,2013-01-03 04:06:00,
2013-01-02 23:11:00,26.4,24.6,30.05,SSW,206,3.4,7.9,93,0.00,,,0.00,SomeHackedPerlScript,2013-01-03 04:11:00,
2013-01-02 23:16:00,26.4,24.5,30.05,SSW,210,0.0,7.7,92,0.00,,,0.00,SomeHackedPerlScript,2013-01-03 04:16:00,
2013-01-02 23:21:00,26.3,24.4,30.05,SSE,149,0.0,7.0,92,0.00,,,0.00,SomeHackedPerlScript,2013-01-03 04:21:00,
2013-01-02 23:26:00,26.2,24.2,30.05,SW,232,1.4,6.2,92,0.00,,,0.00,SomeHackedPerlScript,2013-01-03 04:26:00,
2013-01-02 23:31:00,26.2,24.2,30.05,South,180,2.1,5.6,92,0.00,,,0.00,SomeHackedPerlScript,2013-01-03 04:31:00,
2013-01-02 23:36:00,26.2,24.2,30.05,SSW,203,4.4,8.0,92,0.00,,,0.00,SomeHackedPerlScript,2013-01-03 04:36:00,
2013-01-02 23:41:00,26.3,24.2,30.05,SSW,206,0.0,8.4,92,0.00,,,0.00,SomeHackedPerlScript,2013-01-03 04:41:00,
2013-01-02 23:46:00,26.1,23.9,30.05,South,183,3.1,6.5,91,0.00,,,0.00,SomeHackedPerlScript,2013-01-03 04:46:00,
2013-01-02 23:51:00,26.1,23.9,30.05,SW,214,0.0,9.1,91,0.00,,,0.00,SomeHackedPerlScript,2013-01-03 04:51:00,
2013-01-02 23:56:00,26.1,23.7,30.05,SSE,165,2.9,4.1,91,0.00,,,0.00,SomeHackedPerlScript,2013-01-03 04:56:00,